Time;durP1;ratioP1;P1;durP2;ratioP2;P2;SDS_P1;SDS_P2;PMS_P1;PMS_P2;Temp;Humidity;BMP_temperature;BMP_pressure;BME280_temperature;BME280_humidity;BME280_pressure;Samples;Min_cycle;Max_cycle;Signal;HPM_P1;HPM_P2
2023/03/07 20:32:51;;;;;;;7.90;3.80;;;;;;;;;;10565759;22;20049;-82
2023/03/07 20:37:51;;;;;;;5.30;2.20;;;;;;;;;;10370624;28;20026;-79
2023/03/07 20:42:52;;;;;;;4.40;2.43;;;;;;;;;;10375747;28;20013;-82
2023/03/07 20:47:52;;;;;;;4.22;2.20;;;;;;;;;;10384386;28;20041;-80
2023/03/07 20:58:02;;;;;;;7.50;4.45;;;;;;;;;;10360801;22;20054;-80
2023/03/07 21:03:03;;;;;;;6.63;3.07;;;;;;;;;;10360082;28;20022;-80
2023/03/07 21:08:03;;;;;;;6.88;3.55;;;;;;;;;;10361898;28;20526;-81
2023/03/07 21:13:06;;;;;;;18.83;6.32;;;;;;;;;;10349660;28;20017;-76
2023/03/07 21:18:07;;;;;;;18.05;6.80;;;;;;;;;;10341200;28;20456;-73
2023/03/07 21:23:07;;;;;;;12.32;6.60;;;;;;;;;;10367451;28;20101;-73
2023/03/07 21:28:07;;;;;;;23.13;7.60;;;;;;;;;;10371056;28;20052;-73
2023/03/07 21:33:09;;;;;;;14.68;7.05;;;;;;;;;;10376580;28;20038;-74
2023/03/07 21:38:09;;;;;;;19.98;9.25;;;;;;;;;;10360703;28;20024;-74
2023/03/07 21:43:10;;;;;;;23.55;9.27;;;;;;;;;;10378596;28;20357;-74
2023/03/07 21:48:11;;;;;;;18.63;7.60;;;;;;;;;;10380925;28;20037;-74
2023/03/07 21:53:11;;;;;;;17.83;8.27;;;;;;;;;;10363521;28;20028;-74
2023/03/07 21:58:12;;;;;;;14.52;6.38;;;;;;;;;;10381241;28;20096;-73
2023/03/07 22:03:12;;;;;;;15.48;6.38;;;;;;;;;;10380556;28;20559;-74
2023/03/07 22:08:14;;;;;;;12.85;5.63;;;;;;;;;;10381262;28;20380;-73
2023/03/07 22:13:15;;;;;;;8.38;5.53;;;;;;;;;;10380548;28;20435;-73
2023/03/07 22:18:16;;;;;;;12.25;6.15;;;;;;;;;;10380520;28;20013;-73
2023/03/07 22:23:17;;;;;;;15.20;6.07;;;;;;;;;;10380108;28;20018;-73
2023/03/07 22:28:18;;;;;;;8.55;4.15;;;;;;;;;;10368306;28;20032;-73
2023/03/07 22:33:18;;;;;;;9.32;4.88;;;;;;;;;;10355454;28;20426;-74
2023/03/07 22:38:19;;;;;;;10.57;5.47;;;;;;;;;;10372060;28;20092;-74
2023/03/07 22:43:19;;;;;;;6.78;3.38;;;;;;;;;;10354570;28;20196;-74
2023/03/07 22:48:20;;;;;;;7.50;4.65;;;;;;;;;;10378909;28;20214;-73
2023/03/07 22:53:20;;;;;;;10.30;4.53;;;;;;;;;;10377325;28;20045;-73
2023/03/07 22:58:20;;;;;;;13.20;5.10;;;;;;;;;;10375372;28;20411;-73
2023/03/07 23:03:22;;;;;;;10.43;5.50;;;;;;;;;;10362895;28;20029;-73
2023/03/07 23:08:22;;;;;;;10.73;5.60;;;;;;;;;;10379420;28;20025;-73
2023/03/07 23:13:22;;;;;;;8.57;5.22;;;;;;;;;;10379847;28;20026;-73
2023/03/07 23:18:22;;;;;;;10.43;5.80;;;;;;;;;;10379827;28;20022;-73
2023/03/07 23:23:23;;;;;;;10.20;6.20;;;;;;;;;;10379377;28;20116;-73
2023/03/07 23:28:23;;;;;;;10.37;5.57;;;;;;;;;;10379769;28;20452;-72
2023/03/07 23:33:26;;;;;;;17.88;6.30;;;;;;;;;;10370093;28;20057;-74
2023/03/07 23:38:26;;;;;;;10.23;6.13;;;;;;;;;;10390145;28;20080;-74
2023/03/07 23:43:27;;;;;;;11.00;5.13;;;;;;;;;;10365251;28;20091;-74
2023/03/07 23:48:27;;;;;;;10.47;6.43;;;;;;;;;;10386096;28;20029;-74
2023/03/07 23:53:27;;;;;;;17.03;6.07;;;;;;;;;;10385645;28;20052;-74
2023/03/07 23:58:28;;;;;;;9.13;5.77;;;;;;;;;;10385917;28;20819;-74
